Date,TemperatureHighF,TemperatureAvgF,TemperatureLowF,DewpointHighF,DewpointAvgF,DewpointLowF,HumidityHigh,HumidityAvg,HumidityLow,PressureMaxIn,PressureMinIn,WindSpeedMaxMPH,WindSpeedAvgMPH,GustSpeedMaxMPH,PrecipitationSumIn
2014-1-1,42.1,37.7,32.3,39.3,35.0,29.6,93,90,89,30.33,30.15,2,0,2,0.00
2014-1-2,46.4,43.3,39.4,41.6,39.9,36.5,92,88,81,30.15,29.82,9,2,9,0.52
2014-1-3,41.3,37.7,32.7,37.7,34.6,29.8,90,89,87,30.27,29.91,4,0,4,0.00
2014-1-4,41.0,33.6,30.7,36.8,30.6,27.5,90,89,84,30.38,30.27,2,0,2,0.00
2014-1-5,37.9,31.8,27.8,34.9,28.8,24.7,90,89,87,30.41,30.24,1,0,1,0.02
2014-1-6,41.0,35.0,30.2,35.2,30.9,27.3,91,85,77,30.23,30.05,3,0,3,0.00
2014-1-7,43.3,40.8,36.3,40.6,37.9,32.5,91,90,86,30.05,29.91,4,1,4,0.24
2014-1-8,45.3,44.1,42.2,42.5,41.2,39.2,91,90,89,29.93,29.60,8,2,8,0.03
2014-1-9,42.8,40.6,38.5,40.0,37.4,35.5,90,89,87,29.92,29.64,4,1,4,0.11
2014-1-10,46.6,43.6,42.4,43.8,40.4,39.3,91,89,87,30.01,29.53,7,3,7,0.29
2014-1-11,49.3,42.6,40.6,46.2,39.2,36.6,91,88,84,29.69,29.27,20,4,20,0.00
2014-1-12,45.3,40.6,37.4,42.8,37.8,34.4,93,90,85,30.22,29.69,9,1,9,0.05
2014-1-13,46.9,45.8,45.1,44.4,43.2,42.2,91,91,89,30.53,30.22,9,2,10,0.00
2014-1-14,48.0,45.6,43.7,44.7,42.9,40.9,92,90,88,30.58,30.49,2,0,5,0.00
2014-1-15,46.0,40.8,34.5,42.7,37.9,31.5,91,89,88,30.52,30.41,2,0,2,0.00
2014-1-16,43.5,36.6,32.7,40.3,33.8,30.0,92,89,87,30.41,30.26,4,0,4,0.00
2014-1-17,38.1,34.9,32.3,35.7,32.1,29.6,91,90,89,30.27,30.09,2,0,2,0.00
2014-1-18,39.9,35.1,31.3,37.2,32.3,28.4,92,90,89,30.18,30.08,3,0,3,0.00
2014-1-19,38.3,34.9,31.8,35.7,32.3,29.2,92,90,90,30.23,30.07,5,0,5,0.00
2014-1-20,41.9,35.2,31.8,38.6,32.2,28.9,91,89,86,30.26,30.18,4,0,4,0.00
2014-1-21,44.4,37.0,31.3,41.0,34.1,28.7,92,89,87,30.26,30.13,4,0,4,0.00
2014-1-22,43.9,40.4,35.6,40.7,37.5,32.6,92,90,88,30.36,30.25,2,0,3,0.00
2014-1-23,43.9,37.1,32.3,40.3,34.0,29.4,91,89,85,30.38,30.30,3,0,3,0.00
2014-1-24,48.2,37.6,32.0,43.5,34.4,29.1,93,88,84,30.34,30.20,2,0,2,0.00
2014-1-25,47.8,37.3,31.6,42.7,33.7,28.7,91,87,81,30.29,30.18,2,0,2,0.00
2014-1-26,46.4,35.7,30.5,39.3,31.7,27.5,91,86,75,30.18,30.00,5,0,5,0.00
2014-1-27,43.7,36.4,30.9,39.1,32.9,28.0,92,87,74,30.13,30.02,5,0,5,0.00
2014-1-28,45.8,43.5,41.7,41.8,36.8,33.7,88,77,67,30.14,29.83,8,1,8,0.17
2014-1-29,46.2,43.3,40.6,43.7,40.3,37.2,91,89,87,29.81,29.54,4,1,4,0.98
2014-1-30,41.5,40.4,38.8,38.5,37.4,35.8,90,89,88,29.83,29.72,5,2,5,0.42
2014-1-31,40.4,38.6,35.6,37.6,35.8,32.6,90,90,88,30.06,29.84,2,1,2,0.00
2014-2-1,41.5,36.3,32.7,37.6,33.1,29.5,92,89,84,30.10,29.99,2,0,2,0.00
2014-2-2,41.9,34.7,31.1,35.3,30.6,27.4,91,85,77,29.99,29.86,3,0,3,0.00
2014-2-3,36.3,32.1,29.3,29.1,26.9,25.6,88,81,70,30.09,29.91,3,0,3,0.00
2014-2-4,32.9,29.6,26.6,26.7,20.2,13.4,87,69,52,30.33,30.10,6,2,6,0.00
2014-2-5,28.6,25.5,22.3,14.0,8.5,4.5,56,49,40,30.39,30.23,8,2,8,0.00
2014-2-6,28.9,25.4,19.4,12.2,8.4,5.0,59,48,38,30.23,29.69,5,1,5,0.00
2014-2-7,34.3,28.4,22.6,18.7,15.1,11.8,73,57,51,29.85,29.68,3,1,3,0.00
2014-2-8,36.5,31.4,20.8,25.1,21.0,14.7,78,66,50,29.95,29.74,7,1,7,0.00
2014-2-9,35.6,32.8,30.2,30.0,27.1,24.1,85,79,76,30.00,29.85,6,1,6,0.00
2014-2-10,44.8,39.7,33.8,40.9,36.0,29.3,90,87,83,29.97,29.89,14,3,14,0.24
2014-2-11,47.3,41.8,34.5,39.4,36.8,30.6,89,83,71,30.06,29.49,12,2,12,0.47
2014-2-12,48.0,44.9,41.3,45.0,41.1,37.4,91,86,78,29.82,29.38,17,3,17,0.40
2014-2-13,48.0,44.5,39.4,41.3,38.0,33.9,88,78,68,29.98,29.62,12,4,12,0.01
2014-2-14,48.2,45.5,41.3,41.4,38.5,33.2,87,77,66,29.87,29.52,12,4,12,0.08
2014-2-15,44.8,39.1,34.5,40.5,34.4,30.3,88,83,71,29.86,29.19,12,1,12,0.00
2014-2-16,40.8,39.2,37.6,36.8,34.3,32.4,87,83,75,29.88,29.62,16,4,16,0.00
2014-2-17,41.9,38.8,36.3,38.3,35.1,32.8,88,87,84,29.84,29.59,10,2,10,0.00
2014-2-18,43.1,39.7,34.0,39.7,35.9,30.0,89,86,82,29.86,29.46,16,2,16,0.00
2014-2-19,41.2,37.2,34.9,35.9,33.5,31.7,90,87,81,30.04,29.75,8,1,8,0.00
2014-2-20,43.1,40.0,36.7,39.3,36.7,33.0,90,88,85,30.11,29.90,6,0,6,0.00
2014-2-21,39.5,36.9,33.2,35.7,33.6,29.9,90,88,85,30.19,30.10,2,0,2,0.00
2014-2-22,36.3,33.8,32.0,33.0,30.6,29.1,90,88,87,30.13,29.94,5,0,5,0.00
2014-2-23,36.8,35.9,34.9,34.0,32.9,31.7,90,89,88,29.95,29.86,7,1,7,0.00
2014-2-24,39.9,39.0,37.0,37.0,36.2,34.3,91,90,89,30.03,29.94,3,0,3,0.00
2014-2-25,48.4,40.4,35.4,44.7,37.2,32.1,91,88,84,30.05,29.91,4,0,4,0.00
2014-2-26,53.2,42.1,33.4,40.7,35.2,30.5,92,77,55,29.91,29.62,9,1,11,0.00
2014-2-27,48.2,42.5,36.5,41.0,36.8,32.0,86,80,71,29.67,29.55,7,0,10,0.00
2014-2-28,54.1,43.5,36.3,44.7,38.8,32.5,88,83,70,29.66,29.46,6,0,6,0.00
2014-3-1,40.3,37.7,32.3,34.5,31.7,27.7,85,79,67,29.61,29.45,13,1,13,0.12
2014-3-2,41.5,35.4,32.0,38.7,31.7,27.4,90,86,83,29.63,29.46,15,4,15,0.97
2014-3-3,48.0,45.0,41.5,45.0,41.7,38.5,91,88,83,29.80,29.58,13,2,13,0.44
2014-3-4,48.0,44.8,41.7,45.3,42.0,38.1,91,90,87,29.86,29.72,8,1,8,0.00
2014-3-5,54.1,49.2,45.1,49.8,45.9,41.7,92,88,85,29.72,29.35,15,2,15,0.27
2014-3-6,49.3,47.6,46.6,45.9,44.0,42.9,89,87,86,29.96,29.41,12,3,15,0.00
2014-3-7,51.1,46.4,40.6,44.5,42.1,36.7,89,85,78,30.19,29.97,6,1,6,0.00
2014-3-8,51.2,47.0,37.6,48.5,43.0,34.0,91,86,72,30.03,29.65,14,2,14,0.00
2014-3-9,51.2,48.5,45.7,48.3,45.6,42.7,91,90,89,29.93,29.71,13,1,13,0.00
2014-3-10,46.7,44.5,42.4,43.3,41.4,39.1,91,89,85,30.36,29.83,4,0,4,0.00
2014-3-11,51.8,42.5,37.0,42.8,38.4,34.0,90,86,71,30.48,30.35,3,0,3,0.00
2014-3-12,55.7,45.5,32.9,43.2,37.9,29.7,90,75,55,30.35,30.07,5,1,7,0.00
2014-3-13,54.3,44.1,34.3,42.7,37.5,30.0,88,78,62,30.08,29.91,8,1,8,0.00
2014-3-14,49.3,46.2,43.7,45.3,42.7,39.9,89,87,82,30.26,29.80,11,2,11,0.00
2014-3-15,52.1,46.1,39.9,46.9,41.0,36.6,89,83,71,30.25,30.08,15,2,15,0.00
2014-3-16,49.6,43.7,38.1,46.2,40.3,34.5,89,88,87,30.11,29.87,10,1,10,0.00
2014-3-17,43.3,38.2,33.8,37.8,34.4,30.6,91,86,77,30.23,29.87,6,0,6,0.00
2014-3-18,46.2,38.9,34.7,40.2,34.9,31.2,90,86,76,30.24,30.07,7,1,7,0.00
2014-3-19,43.7,41.0,35.4,40.0,37.5,32.2,89,88,85,30.09,29.92,6,1,6,0.00
2014-3-20,43.5,38.6,32.9,37.1,34.1,28.9,90,84,75,30.26,30.10,5,0,5,0.00
2014-3-21,46.7,37.9,31.3,37.0,32.4,28.4,90,81,66,30.26,30.18,6,1,6,0.00
2014-3-22,47.1,38.8,30.5,36.7,32.1,26.8,89,77,57,30.22,30.10,6,0,6,0.00
2014-3-23,50.0,42.0,35.4,39.3,35.4,31.0,87,77,64,30.23,30.14,9,1,9,0.00
2014-3-24,62.9,49.7,38.3,42.6,36.1,33.9,86,63,36,30.15,29.79,10,2,10,0.00
2014-3-25,53.9,49.5,46.7,37.5,35.6,32.9,69,59,47,29.80,29.63,7,1,7,0.00
2014-3-26,50.0,46.0,41.3,41.0,39.2,36.2,85,77,68,29.50,29.43,8,2,8,0.00
2014-3-27,49.3,46.1,43.1,42.7,40.9,39.1,86,82,78,29.80,29.48,6,1,6,0.00
2014-3-28,47.1,44.8,42.8,43.7,40.7,38.0,88,86,81,29.80,29.60,11,2,11,0.00
2014-3-29,45.8,44.3,42.1,42.3,40.5,38.5,88,86,84,29.72,29.60,11,2,11,0.00
2014-3-30,47.8,43.9,41.0,41.6,39.1,36.6,88,83,74,29.90,29.71,8,1,8,0.00
2014-3-31,56.1,44.3,33.2,42.3,36.2,29.7,90,75,49,29.89,29.62,8,0,8,0.00
2014-4-1,55.2,43.0,38.8,41.0,36.2,33.5,85,77,56,29.80,29.62,6,1,6,0.00
2014-4-2,45.7,42.1,40.1,40.0,37.1,35.0,85,82,79,29.91,29.81,5,1,5,0.00
2014-4-3,52.7,48.3,44.9,41.3,39.9,37.5,82,73,56,29.85,29.79,7,2,7,0.00
2014-4-4,50.3,46.0,43.7,41.1,39.5,38.2,84,78,68,29.88,29.81,6,2,6,0.00
2014-4-5,47.5,45.8,43.5,44.1,41.5,38.4,88,85,77,29.99,29.87,4,1,4,0.00
2014-4-6,53.4,48.6,43.9,45.4,43.4,40.5,88,83,73,30.21,30.00,6,1,6,0.00
2014-4-7,67.6,55.9,47.6,48.4,46.1,43.3,86,71,48,30.21,29.99,5,1,5,0.00
2014-4-8,56.5,51.9,44.2,47.6,45.1,39.7,84,78,70,30.07,29.96,5,1,5,0.00
2014-4-9,53.2,44.9,37.7,41.6,37.9,34.1,89,77,59,30.18,30.07,8,1,8,0.00
2014-4-10,53.2,44.0,35.6,40.4,36.0,31.5,86,74,57,30.18,30.07,4,1,4,0.00
2014-4-11,55.0,46.1,41.0,44.8,39.7,34.9,83,78,68,30.07,29.95,4,1,4,0.00
2014-4-12,58.1,46.5,37.7,46.5,39.5,33.3,86,77,64,30.08,29.97,4,1,4,0.00
2014-4-13,63.8,49.6,36.8,42.8,37.6,32.7,87,66,41,30.22,30.10,6,1,6,0.00
2014-4-14,62.6,49.7,37.6,39.8,35.8,32.4,84,62,37,30.09,29.97,8,2,8,0.00
2014-4-15,54.3,48.7,41.3,40.2,37.5,34.0,77,66,51,30.11,29.98,6,2,6,0.00
2014-4-16,48.5,47.2,46.2,44.0,42.3,40.0,86,83,72,29.98,29.85,5,2,5,0.00
2014-4-17,49.3,47.1,43.5,46.2,43.4,39.9,89,87,85,29.84,29.66,6,2,6,0.00
2014-4-18,51.2,45.6,39.5,41.9,38.6,34.7,88,77,63,30.03,29.81,7,1,7,0.00
2014-4-19,51.2,44.0,37.0,43.5,38.4,32.9,87,81,64,30.08,29.68,15,2,15,0.00
2014-4-20,55.6,48.3,43.7,41.8,39.7,37.9,84,73,56,30.20,30.03,8,1,8,0.00
2014-4-21,57.7,48.7,42.6,45.6,41.4,37.4,85,76,62,30.04,29.73,7,1,7,0.00
2014-4-22,49.3,44.1,40.8,40.9,38.5,36.4,85,81,66,29.79,29.72,6,1,6,0.00
2014-4-23,50.2,45.2,41.0,41.8,39.4,36.8,86,80,69,29.81,29.56,6,2,6,0.00
2014-4-24,51.8,48.4,45.1,44.5,42.6,40.6,88,80,66,29.76,29.51,8,4,8,0.00
2014-4-25,55.0,47.7,41.7,41.7,38.9,35.3,87,72,56,29.80,29.72,5,1,5,0.00
2014-4-26,53.9,45.8,37.9,40.1,36.1,32.9,86,70,47,29.74,29.56,8,2,8,0.00
2014-4-27,48.2,44.6,40.4,38.7,37.7,36.2,85,77,66,30.00,29.56,11,3,11,0.00
2014-4-28,55.9,46.1,39.5,41.3,38.5,35.1,87,75,54,30.27,30.02,4,1,4,0.00
2014-4-29,69.2,54.8,41.5,46.5,40.0,36.3,86,61,34,30.40,30.28,6,1,6,0.00
2014-4-30,75.9,59.7,43.7,51.8,44.9,37.3,82,60,34,30.32,30.08,6,1,6,0.00
2014-5-1,79.0,62.5,46.4,54.1,47.7,40.5,82,61,34,30.08,29.87,4,1,4,0.00
2014-5-2,66.2,59.1,50.9,49.7,47.0,43.0,78,65,50,29.96,29.81,6,2,6,0.00
2014-5-3,54.7,51.1,49.1,48.4,45.3,43.8,86,80,75,29.84,29.65,6,2,6,0.00
2014-5-4,51.4,49.3,47.8,47.3,44.9,42.9,86,85,83,29.77,29.65,5,2,5,0.00
2014-5-5,52.5,48.3,45.1,48.4,44.6,41.7,89,87,84,29.93,29.77,6,2,6,0.00
2014-5-6,57.2,50.6,45.7,47.0,45.2,40.8,89,82,67,29.95,29.90,4,1,4,0.00
2014-5-7,61.1,52.8,41.9,48.7,44.6,38.3,89,74,62,29.95,29.77,8,1,8,0.00
2014-5-8,55.9,50.4,46.0,47.7,45.1,41.1,88,82,71,29.79,29.55,10,2,10,0.00
2014-5-9,52.9,49.1,46.0,45.6,42.8,40.4,86,79,64,29.91,29.63,16,3,16,0.00
2014-5-10,52.3,47.2,44.2,47.0,42.9,40.3,88,85,80,30.18,29.90,5,1,5,0.00
2014-5-11,61.0,51.0,41.7,50.3,44.9,38.4,91,80,66,30.24,30.16,9,1,9,0.00
2014-5-12,70.3,57.6,45.1,51.7,44.1,38.8,88,64,35,30.27,30.17,9,1,9,0.00
2014-5-13,73.2,60.3,49.1,52.1,47.4,42.5,82,64,42,30.28,30.20,8,1,8,0.00
2014-5-14,77.0,59.9,50.5,56.5,50.1,45.2,84,71,48,30.24,30.03,4,0,4,0.00
2014-5-15,75.4,64.8,54.3,59.5,54.4,45.8,85,70,49,30.02,29.86,4,1,4,0.00
2014-5-16,64.6,59.4,53.8,48.3,46.8,42.4,76,63,45,30.03,29.95,12,2,12,0.00
2014-5-17,61.3,56.0,52.3,49.5,47.8,45.7,82,74,63,29.98,29.77,8,1,8,0.00
2014-5-18,60.2,53.7,48.5,49.5,47.1,43.5,86,79,65,29.82,29.71,9,1,9,0.00
2014-5-19,60.8,55.1,50.3,51.6,48.6,44.9,86,79,68,29.97,29.81,8,1,8,0.00
2014-5-20,65.8,55.7,46.7,53.9,48.3,42.7,89,76,63,30.05,29.97,9,1,9,0.00
2014-5-21,62.2,54.4,47.5,51.8,46.8,42.1,82,75,65,30.08,30.03,7,1,7,0.00
2014-5-22,70.5,59.8,48.5,57.7,51.5,44.4,87,75,61,30.06,29.92,7,1,7,0.00
2014-5-23,60.1,57.3,54.3,56.2,53.1,49.4,88,86,81,30.04,29.86,10,1,10,0.00
2014-5-24,60.2,54.2,50.0,52.0,48.9,45.7,87,82,73,30.09,30.03,3,0,3,0.00
2014-5-25,57.0,53.0,50.0,50.5,48.2,45.7,88,84,74,30.04,29.90,5,1,5,0.00
2014-5-26,57.9,53.3,51.4,51.4,48.6,47.6,88,84,70,30.06,29.90,4,2,4,0.00
2014-6-5,66.9,58.1,47.5,51.5,48.2,43.8,87,70,55,30.07,29.97,3,1,3,0.00
2014-6-6,69.1,58.1,46.4,52.2,46.8,41.8,88,67,49,30.04,29.99,7,2,7,0.00
2014-6-7,68.0,60.2,49.8,54.5,50.2,44.1,82,70,56,30.10,30.03,7,2,8,0.00
2014-6-8,69.6,59.8,51.2,55.7,51.2,46.1,84,73,59,30.12,29.99,6,1,6,0.00
2014-6-9,65.1,57.9,51.6,51.2,48.0,43.0,81,70,56,30.06,29.99,8,1,8,0.00
2014-6-10,59.5,53.5,46.7,48.8,45.5,40.4,81,74,65,30.04,29.99,5,0,5,0.00
2014-6-11,69.4,54.0,45.7,53.5,46.1,41.2,88,76,55,29.99,29.74,6,1,6,0.00
2014-6-12,60.8,56.4,51.8,51.5,49.0,46.2,84,76,68,29.79,29.70,6,2,6,0.00
2014-6-13,53.9,52.3,50.9,50.1,48.4,47.0,88,87,84,30.02,29.77,3,1,3,0.00
2014-6-14,56.1,52.3,49.8,50.3,47.5,45.5,86,84,79,30.02,29.88,3,1,3,0.00
2014-6-15,55.7,51.6,49.3,51.6,47.7,45.8,89,87,83,29.88,29.75,4,1,4,0.00
2014-6-16,55.6,50.5,48.2,49.9,46.4,44.5,89,86,79,29.88,29.76,4,1,4,0.00
2014-6-17,56.5,52.4,49.3,50.9,48.4,46.2,90,86,80,30.02,29.88,4,1,4,0.00
2014-6-18,60.6,55.1,51.8,51.3,49.0,46.8,86,80,70,30.02,29.94,5,1,5,0.00
2014-6-19,68.9,60.3,50.3,54.3,51.3,46.7,89,73,56,29.94,29.86,6,2,6,0.00
2014-6-20,61.0,55.0,49.6,52.2,47.4,43.5,86,76,65,30.08,29.94,4,1,4,0.00
2014-6-21,66.4,58.6,44.2,51.5,47.7,39.9,87,67,57,30.07,29.93,8,1,8,0.00
2014-6-22,70.1,59.1,47.1,55.4,49.6,42.2,88,71,57,30.01,29.90,6,1,6,0.00
2014-6-23,71.6,62.0,52.7,55.8,50.7,45.3,82,67,55,29.99,29.90,8,1,8,0.00
2014-6-24,67.6,60.8,55.6,56.3,52.9,49.4,84,75,64,30.03,29.93,8,1,8,0.00
2014-6-25,72.8,61.1,52.5,60.3,53.7,48.4,87,77,61,29.94,29.70,5,1,5,0.00
2014-6-26,66.0,61.9,58.3,56.5,54.9,50.3,86,78,67,29.74,29.69,7,2,7,0.00
2014-6-27,63.3,59.2,56.1,56.7,52.8,49.4,84,79,73,29.80,29.64,6,2,6,0.00
2014-6-28,58.8,56.5,55.4,53.7,52.0,51.3,87,85,79,29.88,29.80,5,2,5,0.00
2014-6-29,61.3,57.7,55.7,53.1,51.1,49.5,81,78,74,30.13,30.01,4,1,4,0.00
2014-6-30,72.3,61.0,48.9,58.5,53.1,45.2,89,76,61,30.15,29.96,4,1,4,0.00
2014-7-1,83.5,72.7,54.3,64.6,60.9,50.2,89,68,50,29.88,29.66,5,1,5,0.00
2014-7-2,72.7,65.9,57.0,60.1,56.2,48.9,83,71,60,29.93,29.68,8,2,8,0.00
2014-7-3,64.0,59.1,54.8,55.0,51.3,47.8,80,75,69,30.02,29.93,3,0,3,0.00
2014-7-4,68.2,60.4,52.9,55.0,50.6,46.3,81,70,61,29.98,29.92,5,1,5,0.00
2014-7-5,64.4,56.9,54.3,55.3,51.6,49.3,87,82,72,30.01,29.95,5,1,5,0.00
2014-7-14,78.8,71.0,61.5,63.9,60.5,56.3,85,70,58,30.03,29.97,10,1,10,0.00
2014-7-15,80.2,65.8,58.8,64.1,58.1,54.2,86,77,53,30.02,29.90,4,0,4,0.00
2014-7-16,81.8,69.9,57.5,63.9,58.8,53.0,87,69,47,29.92,29.82,6,1,6,0.00
2014-7-17,72.1,63.3,57.2,58.4,54.8,51.7,82,74,61,29.94,29.85,6,1,6,0.00
2014-7-18,61.7,57.4,55.0,54.1,52.0,50.3,85,82,75,30.00,29.92,3,1,3,0.00
2014-7-19,69.2,64.9,61.0,60.6,58.0,54.9,82,78,73,29.96,29.85,9,2,9,0.00
2014-7-20,59.7,56.5,55.0,54.2,52.0,50.6,87,85,82,29.89,29.86,2,0,2,0.00
2014-7-21,69.2,64.8,56.5,54.7,53.0,50.1,79,65,58,29.93,29.88,7,2,7,0.00
2014-7-22,64.7,59.2,52.9,58.6,53.4,48.2,86,81,75,30.00,29.91,7,1,7,0.00
2014-7-23,61.7,58.9,55.0,57.3,55.1,50.3,90,87,83,29.98,29.85,5,1,5,0.00
2014-7-24,56.1,53.9,53.2,52.9,50.6,49.5,90,88,84,30.12,29.97,5,1,5,0.00
2014-7-25,68.0,59.4,52.9,57.4,53.5,50.3,91,81,67,30.10,29.99,5,1,5,0.00
2014-7-26,72.8,62.2,52.7,60.1,54.4,48.9,89,76,63,30.07,30.02,5,1,5,0.00
2014-7-27,76.3,63.8,52.0,62.8,55.4,47.9,89,75,61,30.09,29.99,6,1,6,0.00
2014-7-28,79.0,66.8,55.2,63.0,57.4,51.1,89,73,55,30.03,29.97,5,1,5,0.00
2014-7-29,76.8,65.5,55.2,61.1,55.5,50.8,87,71,57,30.05,29.97,6,1,6,0.00
2014-7-30,77.7,65.6,55.7,61.5,55.6,49.5,87,71,57,30.05,30.00,4,1,4,0.00
2014-7-31,79.9,65.8,52.9,63.2,55.8,48.1,86,71,56,30.04,29.93,4,1,4,0.00
2014-8-1,76.3,66.8,57.4,63.5,57.8,52.6,86,73,55,29.98,29.86,6,1,6,0.00
2014-8-2,73.6,65.3,59.9,66.9,60.3,55.7,88,84,75,29.92,29.86,12,1,12,0.00
2014-8-3,81.1,69.8,61.5,65.6,61.8,57.8,90,76,59,29.97,29.83,4,1,4,0.00
2014-8-4,82.2,69.7,58.8,65.7,59.5,53.6,89,71,52,29.90,29.82,5,1,5,0.00
2014-8-5,73.2,64.1,54.8,60.1,55.4,49.4,86,74,61,29.98,29.87,6,1,6,0.00
2014-8-6,73.9,63.3,56.1,60.9,55.8,51.3,87,77,62,30.06,29.97,4,1,4,0.00
2014-8-7,73.7,64.1,55.6,58.9,54.8,48.6,87,72,59,30.00,29.93,6,1,6,0.00
2014-8-8,71.9,62.2,53.9,56.7,51.4,47.3,79,68,56,30.03,29.96,7,1,7,0.00
2014-8-9,75.2,62.2,51.2,58.0,52.0,46.3,85,70,53,30.07,30.00,4,1,4,0.00
2014-8-10,79.9,65.9,53.6,63.3,56.2,48.8,87,72,56,30.04,29.90,3,1,3,0.00
2014-8-11,85.4,72.0,60.1,69.9,62.2,55.6,87,72,54,29.91,29.72,5,1,5,0.00
2014-8-12,74.1,69.6,65.8,62.8,61.0,58.5,84,74,66,29.82,29.72,5,1,5,0.00
2014-8-13,70.0,64.8,61.3,61.1,59.1,56.8,87,82,72,29.92,29.77,5,2,5,0.00
2014-8-14,64.4,62.1,59.7,60.1,58.1,55.8,88,87,85,29.94,29.88,2,0,2,0.00
2014-8-15,65.8,63.7,60.8,60.5,59.5,57.7,91,86,80,29.98,29.88,5,1,5,0.00
2014-8-16,70.5,64.2,59.7,63.3,59.6,56.4,89,85,77,30.03,29.97,4,1,4,0.00
2014-8-17,74.5,65.8,60.1,64.7,60.0,56.6,90,82,70,30.03,29.95,5,1,5,0.00
2014-8-18,77.0,66.9,58.8,66.7,60.9,55.1,90,81,69,29.95,29.74,5,1,5,0.00
2014-8-19,71.6,64.2,61.1,63.0,59.2,57.2,88,84,74,29.75,29.72,4,1,4,0.00
2014-8-20,68.3,62.4,58.3,55.4,52.8,50.7,81,71,62,29.90,29.78,8,2,8,0.00
2014-8-21,60.1,56.7,54.1,53.5,51.6,49.4,86,83,78,29.94,29.90,5,1,5,0.00
2014-8-22,66.2,56.2,51.8,57.8,51.7,48.0,88,85,74,29.98,29.92,4,1,4,0.00
2014-8-23,75.4,69.1,59.9,60.8,58.5,54.1,81,69,60,30.04,29.92,5,2,5,0.00
2014-8-24,74.3,63.5,55.6,59.8,55.9,51.5,89,77,60,29.91,29.81,7,1,7,0.00
2014-8-25,77.3,65.4,55.4,61.2,56.6,51.3,88,74,57,29.93,29.86,4,1,4,0.00
2014-8-26,80.8,68.4,57.9,63.3,58.9,53.7,88,73,53,29.96,29.88,8,1,8,0.00
2014-8-27,79.9,68.7,59.3,63.3,58.8,53.5,87,71,55,29.95,29.90,8,1,8,0.00
2014-8-28,71.6,64.1,58.4,59.9,56.5,53.2,84,76,66,30.02,29.91,6,1,6,0.00
2014-8-29,64.6,61.1,57.5,57.3,55.2,52.3,85,81,74,29.91,29.84,3,1,3,0.00
2014-8-30,61.3,59.7,56.3,57.5,55.7,52.5,88,87,82,29.87,29.79,4,1,4,0.00
2014-8-31,64.7,58.5,54.8,54.8,52.9,50.3,88,82,69,29.97,29.88,5,1,5,0.00
2014-9-1,69.8,60.5,53.6,56.8,52.8,49.8,89,76,61,29.99,29.89,5,1,5,0.00
2014-9-2,62.4,58.3,53.8,54.5,52.5,50.0,88,81,73,29.88,29.69,5,1,5,0.00
2014-9-3,62.6,56.1,53.0,54.5,51.8,49.1,90,86,74,30.01,29.77,3,0,3,0.00
2014-9-4,68.9,58.3,49.3,58.1,52.4,46.2,92,81,67,30.05,29.96,5,1,5,0.00
2014-9-5,74.5,61.8,51.6,61.2,54.9,48.3,90,79,61,30.06,29.94,3,1,3,0.00
2014-9-6,78.1,64.2,52.0,61.7,55.7,47.9,89,75,52,29.97,29.76,3,0,3,0.00
2014-9-7,76.3,63.9,53.8,58.8,54.6,49.7,87,73,52,29.80,29.71,5,1,5,0.00
2014-9-8,63.5,58.8,54.5,55.4,52.5,50.1,86,80,73,29.83,29.74,7,1,7,0.00
2014-9-9,63.3,56.4,52.9,55.2,51.2,48.8,87,83,73,30.04,29.84,5,1,5,0.00
2014-9-10,65.3,56.6,50.0,55.3,50.2,44.3,89,80,61,30.12,30.03,5,0,5,0.00
2014-9-11,69.6,58.7,47.5,44.3,39.7,35.3,85,53,29,30.20,30.05,6,2,6,0.00
2014-9-12,49.3,46.3,44.2,45.0,40.7,39.4,85,81,75,30.04,29.97,0,0,0,0.00
2014-9-13,73.7,62.1,45.5,53.1,48.3,40.6,86,63,43,29.88,29.76,3,1,3,0.00
2014-9-14,75.7,61.4,48.5,53.9,49.7,43.8,85,67,44,29.82,29.75,4,0,4,0.00
2014-9-15,78.8,63.1,49.6,58.7,52.3,44.3,84,69,47,29.79,29.69,2,0,2,0.00
2014-9-16,69.4,60.9,54.7,56.8,53.4,49.0,83,77,63,29.82,29.73,7,1,7,0.00
2014-9-17,68.3,61.0,57.5,59.9,55.5,53.2,87,82,74,29.79,29.59,5,0,5,0.00
2014-9-18,60.2,59.4,58.4,56.9,56.0,55.1,90,89,86,29.87,29.61,3,1,3,0.00
2014-9-19,67.1,61.8,57.5,59.9,57.0,53.6,90,84,74,30.01,29.87,4,1,4,0.00
2014-9-20,70.1,60.0,53.2,62.7,55.7,50.0,90,86,77,30.01,29.79,3,0,3,0.00
2014-9-21,78.1,63.8,53.4,61.7,56.0,50.2,91,77,51,29.84,29.73,6,1,6,0.00
2014-9-22,65.8,61.5,58.3,57.7,55.4,54.1,86,80,71,29.91,29.80,7,1,7,0.00
2014-9-23,64.4,60.0,56.6,59.3,55.8,52.8,90,86,81,29.81,29.59,5,1,5,0.00
2014-9-24,60.8,59.1,55.7,57.5,55.6,52.5,89,88,85,29.78,29.59,5,1,5,0.00
2014-9-25,61.5,57.2,55.6,55.7,53.6,52.4,91,88,78,29.80,29.73,8,1,8,0.00
2014-9-26,60.1,57.5,55.4,55.9,53.9,51.9,91,88,85,30.00,29.80,3,1,3,0.00
2014-9-27,62.2,56.5,52.7,56.6,53.1,49.8,92,88,81,30.03,29.98,3,1,3,0.00
2014-9-28,58.6,54.4,52.9,55.0,51.5,49.6,91,90,87,29.98,29.80,4,0,4,0.00
2014-9-29,57.7,54.1,50.5,54.1,51.1,47.9,92,90,85,29.82,29.77,5,1,5,0.00
2014-9-30,59.5,54.8,52.0,53.4,50.9,49.4,92,87,77,30.05,29.92,6,1,6,0.00
2014-10-1,58.8,53.5,50.2,52.0,49.2,46.4,91,85,78,30.11,30.05,4,0,4,0.00
2014-10-2,61.5,53.2,46.7,51.2,47.6,43.3,90,82,68,30.20,30.09,3,0,3,0.00
2014-10-3,65.5,54.5,45.7,56.3,48.8,42.3,90,81,68,30.19,30.04,2,0,2,0.00
2014-10-4,56.8,55.1,54.3,53.9,51.7,50.8,90,88,87,30.10,30.05,1,0,1,0.00
2014-10-5,68.9,63.5,56.8,61.0,57.9,53.0,89,82,75,30.03,29.97,4,1,4,0.00
2014-10-6,70.5,60.9,53.4,62.3,56.1,50.2,91,84,74,29.98,29.87,4,0,4,0.00
2014-10-7,63.3,58.4,54.3,58.7,54.9,51.1,91,88,84,29.87,29.81,4,0,4,0.00
2014-10-8,61.9,58.0,54.3,57.7,54.8,51.1,91,89,86,29.92,29.84,1,0,1,0.00
2014-10-9,64.9,56.5,50.5,58.4,52.6,47.9,92,87,76,29.95,29.89,4,0,4,0.00
2014-10-10,62.8,57.2,50.2,56.6,52.1,47.3,92,83,77,29.96,29.90,6,2,6,0.00
2014-10-11,59.0,56.6,55.4,54.3,52.7,51.6,90,87,78,29.95,29.89,8,1,8,0.00
2014-10-12,59.2,57.1,54.3,53.2,51.9,50.1,87,83,77,30.11,29.93,7,0,7,0.00
2014-10-13,68.7,57.6,50.0,53.8,50.5,46.6,90,78,47,29.94,29.56,15,1,15,0.00
2014-10-14,58.3,53.8,51.1,52.7,49.6,47.3,89,86,80,29.73,29.43,8,1,8,0.00
2014-10-15,53.4,52.3,50.9,50.2,48.8,46.1,90,88,83,29.87,29.40,11,2,11,0.00
2014-10-16,52.1,50.8,49.6,48.0,47.1,46.5,89,87,84,29.92,29.87,5,1,5,0.00
2014-10-17,60.4,56.7,55.0,52.3,49.2,45.9,87,76,66,29.73,29.62,7,2,7,0.00
2014-10-18,61.7,58.1,55.9,57.2,54.5,52.1,90,88,84,29.86,29.71,6,2,6,0.00
2014-10-19,66.4,59.9,54.8,57.5,54.3,51.6,89,82,72,29.70,29.57,4,1,4,0.00
2014-10-20,57.5,56.4,53.0,54.0,52.4,49.5,89,87,82,29.70,29.59,5,2,5,0.00
2014-10-21,56.5,53.3,51.6,51.6,48.8,47.1,89,85,78,29.81,29.63,6,2,6,0.00
2014-10-22,53.4,52.5,51.8,50.2,48.9,46.7,90,88,80,29.63,29.48,8,2,8,0.00
2014-10-23,53.2,49.8,46.0,49.1,45.9,42.6,89,86,83,29.89,29.57,6,2,6,0.00
2014-10-24,54.8,49.9,46.0,49.4,45.7,42.6,89,86,81,29.93,29.64,3,1,3,0.00
2014-10-25,56.8,51.7,46.2,51.5,47.9,43.1,91,87,80,29.76,29.32,19,3,21,0.00
2014-10-26,49.3,47.4,44.0,46.3,44.1,41.2,91,88,85,30.17,29.76,7,1,7,0.00
2014-10-27,45.1,43.0,42.1,42.7,40.3,39.1,92,90,90,30.20,30.16,3,0,3,0.00
2014-10-28,54.3,51.7,48.4,49.9,47.8,44.4,89,86,84,29.97,29.89,6,2,6,0.00
2014-10-29,57.9,53.7,47.5,51.6,49.3,44.1,89,85,77,30.17,29.97,5,2,5,0.00
2014-10-30,56.1,52.8,47.3,51.6,48.9,43.9,90,87,77,30.07,29.77,5,1,5,0.00
2014-10-31,53.0,49.9,47.1,49.8,47.1,44.3,91,90,89,29.92,29.72,2,0,2,0.00
2014-11-1,46.6,44.5,41.5,43.8,41.9,38.7,92,91,89,30.07,29.88,2,0,2,0.00
2014-11-2,50.9,47.5,44.4,46.7,44.5,41.9,92,89,83,30.18,30.07,3,1,3,0.00
2014-11-3,52.5,51.3,49.3,50.0,48.8,46.7,92,91,91,30.15,30.07,5,2,5,0.00
2014-11-4,53.2,51.6,48.9,50.9,49.1,46.3,92,91,90,30.31,30.02,5,1,5,0.00
2014-11-5,54.8,51.4,48.2,52.1,48.7,45.7,92,91,89,30.31,30.02,5,1,5,0.00
2014-11-6,57.0,53.7,49.8,53.2,50.2,46.3,92,88,84,30.33,29.81,13,3,13,0.00
2014-11-7,53.0,47.3,41.3,47.2,43.7,38.2,91,88,79,30.51,30.33,3,0,3,0.00
2014-11-8,50.7,44.3,38.6,46.7,41.3,36.2,93,89,86,30.41,30.07,2,0,2,0.00
2014-11-9,48.0,46.1,44.2,45.5,43.2,41.0,91,90,86,30.08,29.86,4,1,4,0.00
2014-11-10,47.8,42.0,37.2,43.2,39.0,34.5,92,89,84,30.23,30.07,3,0,3,0.00
2014-11-11,42.1,37.4,33.4,33.8,22.1,10.8,90,58,35,30.39,30.20,12,4,12,0.00
2014-11-12,43.3,35.2,28.4,22.5,16.1,10.8,70,47,30,30.39,30.14,5,1,5,0.00
2014-11-13,44.4,33.9,26.0,25.9,19.3,16.0,79,58,32,30.13,29.99,4,1,4,0.00
2014-11-14,43.7,30.9,23.5,27.8,20.7,16.2,99,67,33,30.10,30.03,6,1,0,0.00
2014-11-15,46.2,33.4,22.3,29.9,23.3,15.6,99,72,29,30.47,30.35,3,1,0,0.00
2014-11-16,50.4,32.8,24.3,32.5,25.2,17.3,99,78,31,30.46,30.28,4,1,0,0.02
2014-11-17,53.2,36.2,27.1,34.7,28.3,20.0,99,78,34,30.31,30.08,4,1,0,0.00
2014-11-18,50.4,36.6,29.1,37.2,31.7,22.4,99,85,35,30.08,29.96,4,0,0,0.00
2014-11-19,54.9,44.8,33.4,39.5,30.6,20.1,97,62,28,29.97,29.70,11,2,0,0.00
2014-11-20,50.9,47.3,40.8,47.7,42.8,22.4,99,87,34,29.88,29.76,9,3,0,0.09
2014-11-21,48.9,46.9,43.9,47.5,46.0,43.6,99,97,89,29.80,29.23,8,3,0,1.55
2014-11-22,44.8,42.8,40.5,44.2,42.5,40.2,99,99,97,30.06,29.43,74,3,0,0.28
2014-11-23,45.5,44.8,44.1,45.2,44.4,43.8,99,99,96,30.07,29.98,9,4,0,0.51
2014-11-24,48.9,46.8,44.8,48.7,46.1,43.4,99,97,93,30.07,30.02,6,3,0,0.05
2014-11-25,55.2,49.5,46.0,54.2,49.1,45.8,99,99,95,30.14,30.03,8,2,0,0.94
2014-11-26,58.5,55.9,52.9,54.2,52.7,51.3,99,89,77,30.08,29.80,10,4,0,0.33
2014-11-27,55.9,53.1,49.6,53.0,51.3,48.7,99,94,82,29.81,29.67,11,6,0,1.19
2014-11-28,51.6,48.2,43.9,51.3,47.9,43.6,99,99,99,29.44,29.42,8,5,0,0.02
2014-12-1,40.1,30.3,24.8,32.3,28.3,24.6,99,92,67,30.14,30.05,0,0,0,0.13
2014-12-2,40.3,29.1,23.2,35.5,28.2,22.9,99,96,83,30.13,29.85,2,0,0,0.90
2014-12-3,40.8,31.8,26.1,38.4,31.2,25.8,99,98,90,29.84,29.67,4,1,0,0.66
2014-12-4,43.2,38.2,33.8,42.0,37.8,33.5,99,99,87,29.87,29.69,12,1,0,0.94
2014-12-5,54.5,46.6,40.5,50.7,44.4,40.2,99,93,60,29.90,29.67,11,3,0,0.17
2014-12-6,54.5,48.0,45.5,49.0,46.6,40.8,99,95,60,30.18,29.69,8,3,0,0.38
2014-12-7,55.2,47.0,38.7,49.7,42.6,37.9,99,86,52,30.17,29.92,6,2,0,0.00
2014-12-8,57.9,52.5,48.2,48.3,42.8,37.7,97,71,53,29.99,29.80,11,5,0,0.24
2014-12-9,58.8,54.5,49.6,54.9,50.9,46.9,99,88,77,29.84,29.67,13,5,0,0.79
2014-12-10,60.3,53.3,49.3,52.3,49.5,45.5,99,88,61,29.66,29.19,11,4,0,0.83
2014-12-11,53.6,48.4,43.7,49.0,46.8,43.4,99,95,69,29.50,29.10,13,3,0,0.64
2014-12-13,49.1,42.1,33.8,46.1,41.3,33.5,99,97,88,30.16,30.13,3,0,0,0.02
2014-12-14,48.2,35.7,31.5,43.9,34.9,31.2,99,97,84,30.15,29.93,3,1,0,0.00
2014-12-15,54.3,42.2,31.3,35.8,31.7,28.6,99,71,38,29.94,29.77,8,3,0,0.00
2014-12-19,48.7,45.4,42.8,44.1,42.4,40.6,97,89,79,29.89,29.80,8,3,0,0.01
2014-12-20,54.1,46.2,42.1,52.7,44.4,38.9,99,93,82,29.80,29.37,14,5,0,0.31
2014-12-21,52.2,47.1,44.2,51.5,46.8,44.0,99,99,95,30.04,29.45,5,1,0,0.07
2014-12-22,47.7,41.8,38.1,46.3,41.3,37.9,99,98,87,30.31,30.04,3,0,0,0.00
2014-12-23,51.1,44.3,40.1,50.4,43.1,37.1,99,96,77,30.22,29.97,8,3,0,0.86
2014-12-24,40.3,38.8,36.7,40.0,38.5,36.4,99,99,98,29.98,29.81,4,1,0,0.78
2014-12-25,43.3,38.9,36.7,42.3,38.5,36.4,99,98,90,30.17,29.98,4,1,0,0.68
2014-12-28,40.6,36.5,32.5,39.7,36.2,32.3,99,99,95,30.10,30.07,3,0,0,0.00
2014-12-29,44.8,33.4,27.3,39.2,32.6,27.1,99,97,68,30.64,30.09,5,1,0,0.00
2014-12-30,41.2,27.9,22.8,29.4,25.4,21.5,99,91,56,30.76,30.64,4,1,0,0.00
2014-12-31,42.8,28.4,23.0,30.3,26.0,22.8,99,91,61,30.64,30.33,3,1,0,0.00
2015-1-1,25.7,24.6,23.9,25.5,24.4,23.7,99,99,99,30.33,30.24,2,0,0,0.00
2015-1-2,37.4,36.6,35.8,37.1,36.2,35.1,99,98,92,30.13,30.01,5,1,0,0.19